createdAt,value
2022-09-01T00:03:16.438Z,99.0
2022-09-01T00:19:01.721Z,99.0
2022-09-01T00:34:01.816Z,99.0
2022-09-01T00:49:01.666Z,99.0
2022-09-01T01:04:01.641Z,99.0
2022-09-01T01:14:01.766Z,99.0
2022-09-01T01:24:02.806Z,99.0
2022-09-01T01:29:03.326Z,99.0
2022-09-01T01:34:03.898Z,99.0
2022-09-01T01:39:01.658Z,99.0
2022-09-01T01:44:03.640Z,99.0
2022-09-01T01:49:01.589Z,99.0
2022-09-01T01:54:02.785Z,99.0
2022-09-01T01:59:01.598Z,99.0
2022-09-01T02:04:01.837Z,99.0
2022-09-01T02:09:02.737Z,99.0
2022-09-01T02:14:01.731Z,99.0
2022-09-01T02:19:01.602Z,99.0
2022-09-01T02:29:01.870Z,99.0
2022-09-01T02:44:02.807Z,99.0
2022-09-01T02:49:01.720Z,99.0
2022-09-01T02:54:06.686Z,99.0
2022-09-01T03:04:06.894Z,99.0
2022-09-01T03:09:02.887Z,99.0
2022-09-01T03:30:03.124Z,99.0
2022-09-01T03:35:01.681Z,99.0
2022-09-01T03:45:02.620Z,99.0
2022-09-01T04:00:03.197Z,99.0
2022-09-01T04:15:01.741Z,99.0
2022-09-01T04:25:01.580Z,99.0
2022-09-01T04:30:01.789Z,99.0
2022-09-01T04:35:01.602Z,99.0
2022-09-01T04:40:02.253Z,99.0
2022-09-01T04:45:11.437Z,99.0
2022-09-01T04:50:01.651Z,99.0
2022-09-01T04:55:01.651Z,99.0
2022-09-01T05:00:02.540Z,99.0
2022-09-01T05:15:01.600Z,99.0
2022-09-01T05:30:01.642Z,99.0
2022-09-01T05:45:01.584Z,99.0
2022-09-01T06:25:03.540Z,99.0
2022-09-01T06:30:02.298Z,99.0
2022-09-01T06:35:05.747Z,99.0
2022-09-01T06:40:02.148Z,99.0
2022-09-01T06:45:02.231Z,99.0
2022-09-01T06:50:06.796Z,99.0
2022-09-01T07:35:03.310Z,99.0
2022-09-01T08:45:01.069Z,99.0
2022-09-01T08:55:07.221Z,99.0
2022-09-01T09:00:01.736Z,99.0
2022-09-01T09:05:01.301Z,99.0
2022-09-01T09:10:00.947Z,99.0
2022-09-01T09:15:01.085Z,99.0
2022-09-01T09:20:00.855Z,99.0
2022-09-01T09:25:00.970Z,99.0
2022-09-01T09:30:11.537Z,99.0
2022-09-01T09:35:01.295Z,99.0
2022-09-01T09:45:00.864Z,99.0
2022-09-01T10:00:02.201Z,99.0
2022-09-01T10:05:00.985Z,99.0
2022-09-01T10:10:01.526Z,99.0
2022-09-01T10:15:15.185Z,99.0
2022-09-01T10:35:02.895Z,99.0
2022-09-01T10:40:01.803Z,99.0
2022-09-01T10:45:01.481Z,99.0
2022-09-01T10:50:09.731Z,99.0
2022-09-01T10:55:06.269Z,99.0
2022-09-01T11:00:02.900Z,99.0
2022-09-01T11:05:02.418Z,99.0
2022-09-01T11:10:31.183Z,99.0
2022-09-01T11:15:00.966Z,98.32
2022-09-01T11:20:01.206Z,98.32
2022-09-01T11:25:13.302Z,97.1
2022-09-01T11:30:00.856Z,97.1
2022-09-01T11:35:02.338Z,93.26
2022-09-01T11:50:00.870Z,90.04
2022-09-01T11:55:00.987Z,91.3
2022-09-01T12:00:01.216Z,91.3
2022-09-01T12:15:07.730Z,88.12
2022-09-01T12:25:01.186Z,87.11
2022-09-01T12:30:00.980Z,87.11
2022-09-01T12:40:00.963Z,87.06
2022-09-01T12:45:01.081Z,87.17
2022-09-01T13:00:01.591Z,87.07
2022-09-01T13:10:15.793Z,88.26
2022-09-01T13:15:01.777Z,85.28
2022-09-01T13:20:02.122Z,85.28
2022-09-01T13:30:00.925Z,86.03
2022-09-01T13:35:03.331Z,85.36
2022-09-01T13:45:01.126Z,83.94
2022-09-01T13:55:01.124Z,85.33
2022-09-01T14:00:01.184Z,85.33
2022-09-01T14:05:02.101Z,84.18
2022-09-01T14:30:01.085Z,83.63
2022-09-01T14:35:01.007Z,83.8
2022-09-01T14:40:00.921Z,83.8
2022-09-01T14:45:01.976Z,84.61
2022-09-01T14:50:01.206Z,84.61
2022-09-01T15:00:01.278Z,84.72
2022-09-01T15:15:01.040Z,80.63
2022-09-01T15:20:01.100Z,80.63
2022-09-01T15:25:00.979Z,78.61
2022-09-01T15:30:00.900Z,78.61
2022-09-01T15:35:01.037Z,77.0
2022-09-01T15:40:00.900Z,77.0
2022-09-01T15:45:02.089Z,81.78
2022-09-01T16:00:02.295Z,83.26
2022-09-01T16:15:00.906Z,84.46
2022-09-01T16:35:01.492Z,84.15
2022-09-01T16:45:05.987Z,84.25
2022-09-01T16:50:01.264Z,84.25
2022-09-01T16:55:00.919Z,85.14
2022-09-01T17:00:01.623Z,85.14
2022-09-01T17:05:01.365Z,84.85
2022-09-01T17:10:01.183Z,84.85
2022-09-01T17:15:01.447Z,84.42
2022-09-01T17:20:01.333Z,84.42
2022-09-01T17:30:01.060Z,89.6
2022-09-01T17:35:00.925Z,94.2
2022-09-01T17:40:00.928Z,94.2
2022-09-01T17:45:00.995Z,98.33
2022-09-01T17:50:01.376Z,98.33
2022-09-01T17:55:00.941Z,99.0
2022-09-01T18:00:02.405Z,99.0
2022-09-01T18:05:06.318Z,99.0
2022-09-01T18:10:01.086Z,99.0
2022-09-01T18:15:01.022Z,99.0
2022-09-01T18:20:00.971Z,99.0
2022-09-01T18:25:01.070Z,99.0
2022-09-01T18:30:01.820Z,99.0
2022-09-01T18:35:00.939Z,99.0
2022-09-01T18:40:00.993Z,99.0
2022-09-01T18:45:01.112Z,99.0
2022-09-01T18:50:00.932Z,99.0
2022-09-01T19:00:03.101Z,99.0
2022-09-01T19:05:02.495Z,99.0
2022-09-01T19:10:01.061Z,99.0
2022-09-01T19:15:00.969Z,99.0
2022-09-01T19:20:01.011Z,99.0
2022-09-01T19:25:01.013Z,99.0
2022-09-01T19:30:00.948Z,99.0
2022-09-01T19:35:06.174Z,99.0
2022-09-01T19:40:01.035Z,99.0
2022-09-01T19:45:07.901Z,99.0
2022-09-01T19:50:01.853Z,99.0
2022-09-01T19:55:01.384Z,99.0
2022-09-01T20:00:01.446Z,99.0
2022-09-01T20:05:06.064Z,99.0
2022-09-01T20:10:01.582Z,99.0
2022-09-01T20:15:01.126Z,99.0
2022-09-01T20:20:01.141Z,99.0
2022-09-01T20:30:01.723Z,99.0
2022-09-01T20:40:01.149Z,99.0
2022-09-01T20:45:01.146Z,99.0
2022-09-01T21:05:15.787Z,99.0
2022-09-01T21:10:00.989Z,99.0
2022-09-01T21:15:03.123Z,99.0
2022-09-01T21:20:01.140Z,99.0
2022-09-01T21:25:01.639Z,99.0
2022-09-01T21:30:01.055Z,99.0
2022-09-01T21:35:02.231Z,99.0
2022-09-01T21:40:01.027Z,99.0
2022-09-01T21:45:01.298Z,99.0
2022-09-01T21:55:01.100Z,99.0
2022-09-01T22:05:01.166Z,99.0
2022-09-01T22:10:01.036Z,99.0
2022-09-01T22:15:01.176Z,99.0
2022-09-01T22:20:01.011Z,99.0
2022-09-01T22:25:01.152Z,99.0
2022-09-01T22:30:01.017Z,99.0
2022-09-01T22:35:01.195Z,99.0
2022-09-01T22:40:01.150Z,99.0
2022-09-01T22:45:02.217Z,99.0
2022-09-01T23:15:01.275Z,99.0
2022-09-01T23:30:01.211Z,99.0
2022-09-01T23:45:01.205Z,99.0
